Time;durP1;ratioP1;P1;durP2;ratioP2;P2;SDS_P1;SDS_P2;PMS_P1;PMS_P2;Temp;Humidity;BMP_temperature;BMP_pressure;BME280_temperature;BME280_humidity;BME280_pressure;Samples;Min_cycle;Max_cycle;Signal;HPM_P1;HPM_P2
2023/05/24 00:00:27;;;;;;;2.80;2.60;;;21.60;51.70;;;;;;5019068;28;20200;-78
2023/05/24 00:02:56;;;;;;;2.83;2.50;;;21.50;51.60;;;;;;5036663;28;20303;-78
2023/05/24 00:05:23;;;;;;;3.45;2.55;;;21.50;51.70;;;;;;5035870;28;20204;-78
2023/05/24 00:07:51;;;;;;;3.13;2.40;;;21.50;51.70;;;;;;5036854;28;20220;-78
2023/05/24 00:10:18;;;;;;;2.60;2.40;;;21.50;51.70;;;;;;5036878;28;20196;-78
2023/05/24 00:12:45;;;;;;;3.30;2.20;;;21.50;51.70;;;;;;5036064;28;20273;-78
2023/05/24 00:15:12;;;;;;;2.97;2.40;;;21.50;51.60;;;;;;5036836;28;20246;-78
2023/05/24 00:17:42;;;;;;;2.70;2.50;;;21.50;51.60;;;;;;5018831;28;20200;-78
2023/05/24 00:20:12;;;;;;;2.50;2.30;;;21.50;51.60;;;;;;5019360;28;20565;-78
2023/05/24 00:22:40;;;;;;;2.85;2.45;;;21.50;51.70;;;;;;5036418;28;20559;-78
2023/05/24 00:25:07;;;;;;;2.72;2.50;;;21.50;51.40;;;;;;5035216;28;20208;-78
2023/05/24 00:27:36;;;;;;;2.78;2.58;;;21.50;51.40;;;;;;5034632;28;20306;-78
2023/05/24 00:30:03;;;;;;;3.72;2.85;;;21.50;51.50;;;;;;5019140;28;20198;-78
2023/05/24 00:32:30;;;;;;;4.82;2.63;;;21.50;51.40;;;;;;5034713;28;20689;-78
2023/05/24 00:34:58;;;;;;;2.30;2.20;;;21.40;51.30;;;;;;5036273;28;20222;-78
2023/05/24 00:37:28;;;;;;;2.85;2.40;;;21.40;52.30;;;;;;5018436;28;20184;-78
2023/05/24 00:39:55;;;;;;;2.90;2.58;;;21.40;51.50;;;;;;5035562;28;20196;-78
2023/05/24 00:42:23;;;;;;;2.80;2.50;;;21.40;51.40;;;;;;5019485;28;20220;-78
2023/05/24 00:44:50;;;;;;;2.75;2.50;;;21.40;51.30;;;;;;5036350;28;20196;-78
2023/05/24 00:47:17;;;;;;;3.88;2.58;;;21.40;51.30;;;;;;5036036;28;20266;-78
2023/05/24 00:49:46;;;;;;;2.95;2.42;;;21.40;51.10;;;;;;5036670;28;20196;-78
2023/05/24 00:52:13;;;;;;;4.13;2.70;;;21.40;50.90;;;;;;5035355;28;20215;-78
2023/05/24 00:54:42;;;;;;;3.28;2.60;;;21.40;51.30;;;;;;5034678;28;20200;-78
2023/05/24 00:57:12;;;;;;;2.97;2.55;;;21.40;50.80;;;;;;5018699;28;20208;-78
2023/05/24 00:59:40;;;;;;;3.08;2.40;;;21.40;51.30;;;;;;5018597;28;20204;-78
2023/05/24 01:02:08;;;;;;;2.80;2.30;;;21.40;51.20;;;;;;5035311;28;20249;-78
2023/05/24 01:04:36;;;;;;;4.20;2.40;;;21.40;51.00;;;;;;5037137;28;20223;-79
2023/05/24 01:07:09;;;;;;;3.50;2.60;;;21.40;51.00;;;;;;5034443;28;20239;-78
2023/05/24 01:09:45;;;;;;;2.92;2.50;;;21.30;50.90;;;;;;5035154;28;20188;-78
2023/05/24 01:12:23;;;;;;;4.15;3.00;;;21.30;50.80;;;;;;5035607;28;20220;-78
2023/05/24 01:14:58;;;;;;;2.97;2.13;;;21.30;50.80;;;;;;5002973;28;20196;-78
2023/05/24 01:17:31;;;;;;;3.25;2.75;;;21.30;50.90;;;;;;5018148;28;20180;-78
2023/05/24 01:20:05;;;;;;;3.55;2.65;;;21.30;51.20;;;;;;5035199;28;20196;-78
2023/05/24 01:23:03;;;;;;;3.15;2.40;;;21.30;51.20;;;;;;5035045;28;20224;-78
2023/05/24 01:25:41;;;;;;;3.95;2.80;;;21.30;51.20;;;;;;5018554;28;20188;-78
2023/05/24 01:28:10;;;;;;;3.42;2.75;;;21.30;51.20;;;;;;5018278;28;20216;-78
2023/05/24 01:30:37;;;;;;;4.20;2.42;;;21.30;50.80;;;;;;5034635;28;20226;-79
2023/05/24 01:33:04;;;;;;;3.60;2.60;;;21.20;51.00;;;;;;5018113;28;20243;-78
2023/05/24 01:35:38;;;;;;;2.95;2.45;;;21.30;51.20;;;;;;5034140;28;20203;-78
2023/05/24 01:38:06;;;;;;;3.05;2.45;;;21.30;51.20;;;;;;5034071;28;20203;-78
2023/05/24 01:40:34;;;;;;;3.22;2.35;;;21.20;52.10;;;;;;5018203;28;20223;-78
2023/05/24 01:43:04;;;;;;;2.80;2.50;;;21.20;51.20;;;;;;5035546;28;20216;-78
2023/05/24 01:45:35;;;;;;;3.28;2.63;;;21.20;51.20;;;;;;5035981;28;20730;-78
2023/05/24 01:48:06;;;;;;;3.65;2.58;;;21.20;51.10;;;;;;5017243;28;20271;-78
2023/05/24 01:50:36;;;;;;;2.67;2.30;;;21.20;51.00;;;;;;5034394;28;20184;-78
2023/05/24 01:53:04;;;;;;;2.83;2.47;;;21.20;51.10;;;;;;5017830;28;20602;-78
2023/05/24 01:55:32;;;;;;;4.95;2.58;;;21.20;51.20;;;;;;5034310;28;20207;-78
2023/05/24 01:58:02;;;;;;;3.85;2.97;;;21.20;51.20;;;;;;5034722;28;20196;-78
2023/05/24 02:00:29;;;;;;;3.45;2.72;;;21.20;51.20;;;;;;5035232;28;20245;-78
2023/05/24 02:02:58;;;;;;;3.38;2.50;;;21.20;51.20;;;;;;5018450;28;20219;-78
2023/05/24 02:05:25;;;;;;;2.47;2.20;;;21.10;51.50;;;;;;5018492;28;20242;-78
2023/05/24 02:07:52;;;;;;;3.00;2.60;;;21.10;51.30;;;;;;5018720;28;20223;-78
2023/05/24 02:10:19;;;;;;;3.28;2.35;;;21.10;51.10;;;;;;5019350;28;20223;-78
2023/05/24 02:12:46;;;;;;;3.95;2.25;;;21.10;51.20;;;;;;5035485;28;20242;-78
2023/05/24 02:15:14;;;;;;;3.97;2.58;;;21.10;51.10;;;;;;5018972;28;20196;-78
2023/05/24 02:17:42;;;;;;;3.22;2.60;;;21.10;51.10;;;;;;5035645;28;20210;-78
2023/05/24 02:20:12;;;;;;;3.30;2.80;;;21.10;51.10;;;;;;5005934;28;20200;-78
2023/05/24 02:22:40;;;;;;;3.42;2.55;;;21.10;51.10;;;;;;5022329;28;20326;-78
2023/05/24 02:25:08;;;;;;;4.13;2.90;;;21.10;51.20;;;;;;5038693;28;20197;-78
2023/05/24 02:27:35;;;;;;;3.92;2.72;;;21.10;51.10;;;;;;5039115;28;20589;-78
2023/05/24 02:30:02;;;;;;;3.28;2.38;;;21.00;51.10;;;;;;5038556;28;20217;-78
2023/05/24 02:32:30;;;;;;;3.67;2.60;;;21.10;51.50;;;;;;5021763;28;20220;-78
2023/05/24 02:34:58;;;;;;;2.53;2.33;;;21.00;50.80;;;;;;5038430;28;20738;-78
2023/05/24 02:37:27;;;;;;;3.38;2.72;;;21.00;51.20;;;;;;5038112;28;20223;-78
2023/05/24 02:39:55;;;;;;;3.30;2.70;;;21.10;51.60;;;;;;5038961;28;20199;-78
2023/05/24 02:42:21;;;;;;;3.95;2.80;;;21.00;51.40;;;;;;5037713;28;20244;-78
2023/05/24 02:44:51;;;;;;;3.20;2.63;;;21.00;51.30;;;;;;5021378;28;20214;-78
2023/05/24 02:47:18;;;;;;;3.90;2.60;;;21.10;52.30;;;;;;5004955;28;20682;-78
2023/05/24 02:49:46;;;;;;;3.80;2.75;;;21.00;51.40;;;;;;5021114;28;20205;-78
2023/05/24 02:52:13;;;;;;;3.08;2.78;;;21.00;51.30;;;;;;5021192;28;20223;-78
2023/05/24 02:54:41;;;;;;;4.35;2.90;;;21.00;51.60;;;;;;5037673;28;20678;-79
2023/05/24 02:57:08;;;;;;;3.95;2.40;;;21.00;51.50;;;;;;5021967;28;20200;-78
2023/05/24 02:59:35;;;;;;;3.95;2.55;;;21.00;51.90;;;;;;5021389;28;20214;-78
2023/05/24 03:02:02;;;;;;;3.85;2.83;;;21.00;51.50;;;;;;5037031;28;20227;-78
2023/05/24 03:04:30;;;;;;;5.18;2.42;;;21.00;51.40;;;;;;5020316;28;20283;-78
2023/05/24 03:06:57;;;;;;;4.15;2.53;;;20.90;51.50;;;;;;5036898;28;20222;-78
2023/05/24 03:09:23;;;;;;;2.80;2.50;;;20.90;51.60;;;;;;5036943;28;20216;-78
2023/05/24 03:11:53;;;;;;;3.53;2.53;;;20.90;52.20;;;;;;5036908;28;20212;-78
2023/05/24 03:14:21;;;;;;;4.05;2.67;;;20.90;52.20;;;;;;5036991;28;20250;-78
2023/05/24 03:16:49;;;;;;;5.75;2.70;;;20.90;52.20;;;;;;5037708;28;20219;-78
2023/05/24 03:19:16;;;;;;;2.65;2.45;;;20.90;52.30;;;;;;5037399;28;20196;-78
2023/05/24 03:21:45;;;;;;;3.17;2.70;;;20.90;52.60;;;;;;5020714;28;20243;-78
2023/05/24 03:24:12;;;;;;;2.50;2.30;;;21.00;53.00;;;;;;5037967;28;20192;-78
2023/05/24 03:26:39;;;;;;;2.90;2.60;;;21.00;53.00;;;;;;5036764;28;20229;-78
2023/05/24 03:29:11;;;;;;;3.05;2.60;;;21.00;52.80;;;;;;5019630;28;20212;-78
2023/05/24 03:31:41;;;;;;;3.58;2.42;;;21.00;52.60;;;;;;5025060;28;20216;-78
2023/05/24 03:34:10;;;;;;;3.78;2.47;;;21.10;52.90;;;;;;5023134;28;20207;-78
2023/05/24 03:36:39;;;;;;;2.55;2.28;;;21.10;52.60;;;;;;5021078;28;20196;-78
2023/05/24 03:39:06;;;;;;;3.45;2.40;;;21.10;52.50;;;;;;5004821;28;20223;-78
2023/05/24 03:41:47;;;;;;;2.65;2.15;;;21.10;52.40;;;;;;5037549;28;20236;-78
2023/05/24 03:44:16;;;;;;;3.28;2.58;;;21.10;52.60;;;;;;5020373;28;20200;-78
2023/05/24 03:46:43;;;;;;;2.53;2.08;;;21.20;52.30;;;;;;5020406;28;20562;-78
2023/05/24 03:49:10;;;;;;;3.85;2.42;;;21.20;52.10;;;;;;5036937;28;20247;-78
2023/05/24 03:51:38;;;;;;;3.63;2.25;;;21.20;52.20;;;;;;5037117;28;20220;-78
2023/05/24 03:54:06;;;;;;;2.88;2.38;;;21.20;52.10;;;;;;5038343;28;20236;-78
2023/05/24 03:56:33;;;;;;;3.47;2.67;;;21.20;52.00;;;;;;5021261;28;20663;-78
2023/05/24 03:59:02;;;;;;;4.07;2.72;;;21.20;51.80;;;;;;5014895;28;20192;-78
2023/05/24 04:01:31;;;;;;;2.67;2.20;;;21.20;51.50;;;;;;5036891;28;20220;-78
2023/05/24 04:04:00;;;;;;;3.53;2.83;;;21.20;51.30;;;;;;5020088;28;20732;-78
2023/05/24 04:06:28;;;;;;;2.95;2.58;;;21.20;51.60;;;;;;5037399;28;20207;-78
2023/05/24 04:08:58;;;;;;;3.25;2.50;;;21.20;51.20;;;;;;5021365;28;20216;-78
2023/05/24 04:11:27;;;;;;;3.50;2.40;;;21.20;51.20;;;;;;5036640;28;20585;-78
2023/05/24 04:13:55;;;;;;;3.30;2.35;;;21.20;51.20;;;;;;5037025;28;20196;-78
2023/05/24 04:16:25;;;;;;;2.55;2.35;;;21.20;51.20;;;;;;5037728;28;20204;-78
2023/05/24 04:18:54;;;;;;;4.07;2.97;;;21.20;51.30;;;;;;5004312;28;20199;-78
2023/05/24 04:21:21;;;;;;;3.17;2.70;;;21.20;51.20;;;;;;5036267;28;20212;-78
2023/05/24 04:23:49;;;;;;;3.38;2.60;;;21.20;51.30;;;;;;5036387;28;20200;-79
2023/05/24 04:26:16;;;;;;;4.03;2.58;;;21.20;51.20;;;;;;5037056;28;20219;-79
2023/05/24 04:28:44;;;;;;;2.72;2.50;;;21.20;51.50;;;;;;5022211;28;20315;-79
2023/05/24 04:31:11;;;;;;;3.15;2.35;;;21.20;51.60;;;;;;5021270;28;20220;-79
2023/05/24 04:33:40;;;;;;;3.38;2.67;;;21.20;51.20;;;;;;5036230;28;20204;-79
2023/05/24 04:36:10;;;;;;;4.13;2.78;;;21.20;51.30;;;;;;5003693;28;20196;-79
2023/05/24 04:38:38;;;;;;;3.55;2.55;;;21.20;51.30;;;;;;5036750;28;20192;-79
2023/05/24 04:41:05;;;;;;;4.30;2.90;;;21.10;51.40;;;;;;5036591;28;20228;-79
2023/05/24 04:43:32;;;;;;;4.38;2.63;;;21.20;51.50;;;;;;5037560;28;20635;-79
2023/05/24 04:46:00;;;;;;;3.90;3.10;;;21.10;51.40;;;;;;5036582;28;20318;-79
2023/05/24 04:48:27;;;;;;;3.75;2.90;;;21.10;51.30;;;;;;5036658;28;20267;-79
2023/05/24 04:50:55;;;;;;;5.82;2.83;;;21.10;51.30;;;;;;5036750;28;20298;-79
2023/05/24 04:53:23;;;;;;;3.20;2.53;;;21.10;51.30;;;;;;5020517;28;20214;-79
2023/05/24 04:55:50;;;;;;;3.20;2.65;;;21.10;51.20;;;;;;5037071;28;20201;-79
2023/05/24 04:58:17;;;;;;;4.78;2.80;;;21.10;51.50;;;;;;5036040;28;20203;-79
2023/05/24 05:00:44;;;;;;;4.22;2.90;;;21.10;51.50;;;;;;5019175;28;20200;-79
2023/05/24 05:03:12;;;;;;;2.95;2.63;;;21.10;51.50;;;;;;5019393;28;20203;-79
2023/05/24 05:05:39;;;;;;;4.47;2.60;;;21.10;51.50;;;;;;5019288;28;20254;-79
2023/05/24 05:08:06;;;;;;;5.25;3.00;;;21.10;51.70;;;;;;5036015;28;20200;-79
2023/05/24 05:10:34;;;;;;;4.00;2.92;;;21.10;51.30;;;;;;5035173;28;20275;-80
2023/05/24 05:13:01;;;;;;;4.38;3.00;;;21.10;51.10;;;;;;5018199;28;20216;-80
2023/05/24 05:15:29;;;;;;;6.53;3.28;;;21.10;49.60;;;;;;5034891;28;20200;-80
2023/05/24 05:17:56;;;;;;;5.85;3.50;;;21.10;48.00;;;;;;5018369;28;20683;-80
2023/05/24 05:20:24;;;;;;;7.57;3.90;;;21.00;47.80;;;;;;5034851;28;20227;-80
2023/05/24 05:22:51;;;;;;;7.95;3.45;;;21.00;48.30;;;;;;5020954;28;20220;-81
2023/05/24 05:25:18;;;;;;;5.55;3.10;;;21.00;49.00;;;;;;5035458;28;20582;-80
2023/05/24 05:27:47;;;;;;;7.80;3.58;;;21.00;49.10;;;;;;5018188;28;20200;-81
2023/05/24 05:30:14;;;;;;;5.95;3.30;;;21.00;49.10;;;;;;5034591;28;20230;-80
2023/05/24 05:32:42;;;;;;;5.88;3.10;;;21.00;49.60;;;;;;5034647;28;20216;-80
2023/05/24 05:35:09;;;;;;;8.82;3.65;;;21.00;49.70;;;;;;5017893;28;20213;-80
2023/05/24 05:37:36;;;;;;;6.10;3.20;;;21.00;49.60;;;;;;5034471;28;20555;-80
2023/05/24 05:40:03;;;;;;;6.32;3.30;;;21.00;49.60;;;;;;5018760;28;20227;-83
2023/05/24 05:42:31;;;;;;;7.20;3.60;;;21.00;49.80;;;;;;5035524;28;20216;-80
2023/05/24 05:44:59;;;;;;;6.47;3.28;;;21.00;50.10;;;;;;5033883;28;20204;-80
2023/05/24 05:47:27;;;;;;;7.80;3.45;;;21.00;50.60;;;;;;5017656;28;20212;-80
2023/05/24 05:49:54;;;;;;;6.43;3.47;;;21.10;50.80;;;;;;5034332;28;20708;-80
2023/05/24 05:52:21;;;;;;;6.30;3.50;;;21.10;50.20;;;;;;5033587;28;20286;-80
2023/05/24 05:54:48;;;;;;;6.82;3.15;;;21.10;50.10;;;;;;5017606;28;20682;-79
2023/05/24 05:57:18;;;;;;;5.05;3.10;;;21.10;50.00;;;;;;5017637;28;20248;-79
2023/05/24 05:59:45;;;;;;;6.65;3.22;;;21.10;50.10;;;;;;5017606;28;20181;-80
2023/05/24 06:02:14;;;;;;;5.78;3.30;;;21.10;49.90;;;;;;5037988;28;20254;-80
2023/05/24 06:04:41;;;;;;;5.82;3.33;;;21.10;49.80;;;;;;5001084;28;20200;-80
2023/05/24 06:07:09;;;;;;;7.05;3.20;;;21.10;49.90;;;;;;5017179;28;20204;-80
2023/05/24 06:09:36;;;;;;;5.50;3.03;;;21.10;49.70;;;;;;5017362;28;20224;-80
2023/05/24 06:12:04;;;;;;;5.47;3.33;;;21.10;49.70;;;;;;5017740;28;20212;-80
2023/05/24 06:14:33;;;;;;;5.95;3.28;;;21.10;50.00;;;;;;5034271;28;20218;-77
2023/05/24 06:17:00;;;;;;;4.57;2.85;;;21.20;49.40;;;;;;5022301;28;20234;-78
2023/05/24 06:19:29;;;;;;;7.43;3.30;;;21.20;49.30;;;;;;5034525;28;20204;-77
2023/05/24 06:21:57;;;;;;;5.03;3.20;;;21.30;49.40;;;;;;5016769;28;20220;-77
2023/05/24 06:24:23;;;;;;;5.63;3.35;;;21.30;49.70;;;;;;5033743;28;20200;-77
2023/05/24 06:26:51;;;;;;;8.05;3.60;;;21.30;49.40;;;;;;5016556;28;20192;-77
2023/05/24 06:29:20;;;;;;;5.05;3.20;;;21.30;49.50;;;;;;5032670;28;20216;-77
2023/05/24 06:31:47;;;;;;;8.50;3.80;;;21.30;49.20;;;;;;5032654;28;20220;-77
2023/05/24 06:34:16;;;;;;;4.30;2.83;;;21.40;49.40;;;;;;5016422;28;20196;-77
2023/05/24 06:36:46;;;;;;;7.18;3.15;;;21.50;49.20;;;;;;5032788;28;20200;-77
2023/05/24 06:39:13;;;;;;;5.05;3.20;;;21.40;49.30;;;;;;5032409;28;20181;-77
2023/05/24 06:41:42;;;;;;;5.03;3.30;;;21.50;49.10;;;;;;5032384;28;20216;-77
2023/05/24 06:44:09;;;;;;;6.60;3.47;;;21.50;49.30;;;;;;5015990;28;20207;-77
2023/05/24 06:46:36;;;;;;;7.82;3.55;;;21.50;49.00;;;;;;5032104;28;20200;-77
2023/05/24 06:49:03;;;;;;;5.65;3.60;;;21.50;49.20;;;;;;5032575;28;20216;-77
2023/05/24 06:51:32;;;;;;;6.65;3.70;;;21.50;49.10;;;;;;5016081;28;20246;-77
2023/05/24 06:54:01;;;;;;;6.75;3.65;;;21.60;49.30;;;;;;5032435;28;20751;-77
2023/05/24 06:56:28;;;;;;;6.10;3.08;;;21.50;49.20;;;;;;5032789;28;20377;-77
2023/05/24 06:58:55;;;;;;;6.20;3.10;;;21.60;49.20;;;;;;5016375;28;20208;-77
2023/05/24 07:01:22;;;;;;;5.88;3.28;;;21.60;49.00;;;;;;5033155;28;20757;-77
2023/05/24 07:03:49;;;;;;;7.43;3.15;;;21.60;49.00;;;;;;5033570;28;20587;-77
2023/05/24 07:06:17;;;;;;;6.57;3.40;;;21.60;48.80;;;;;;5019066;28;20207;-77
2023/05/24 07:08:44;;;;;;;6.32;3.20;;;21.60;48.80;;;;;;5035895;28;20196;-77
2023/05/24 07:11:13;;;;;;;5.15;3.78;;;21.60;48.90;;;;;;5019488;28;20698;-77
2023/05/24 07:13:40;;;;;;;5.47;3.40;;;21.60;48.60;;;;;;5035938;28;20716;-77
2023/05/24 07:16:07;;;;;;;5.90;3.42;;;21.60;48.90;;;;;;5036271;28;20196;-77
2023/05/24 07:18:34;;;;;;;4.50;3.25;;;21.60;48.90;;;;;;5037247;28;20257;-77
2023/05/24 07:21:01;;;;;;;7.53;3.30;;;21.60;48.80;;;;;;5035618;28;20569;-77
2023/05/24 07:23:29;;;;;;;6.13;3.13;;;21.60;48.90;;;;;;5037019;28;20199;-77
2023/05/24 07:25:56;;;;;;;6.82;3.42;;;21.60;48.60;;;;;;5019188;28;20205;-77
2023/05/24 07:28:24;;;;;;;5.70;3.22;;;21.60;48.90;;;;;;5035703;28;20286;-77
2023/05/24 07:30:52;;;;;;;5.22;3.30;;;21.60;49.50;;;;;;5035158;28;20220;-77
2023/05/24 07:33:19;;;;;;;6.85;3.38;;;21.60;49.00;;;;;;5035933;28;20682;-77
2023/05/24 07:35:50;;;;;;;7.18;3.53;;;21.60;49.10;;;;;;5035250;28;20199;-77
2023/05/24 07:38:17;;;;;;;6.97;3.70;;;21.60;49.10;;;;;;5035310;28;20192;-77
2023/05/24 07:40:45;;;;;;;7.28;3.60;;;21.60;49.00;;;;;;5018838;28;20227;-77
2023/05/24 07:43:12;;;;;;;9.18;3.65;;;21.60;48.70;;;;;;5034901;28;20196;-77
2023/05/24 07:45:41;;;;;;;7.75;3.78;;;21.60;49.10;;;;;;5018696;28;20200;-77
2023/05/24 07:48:08;;;;;;;7.45;3.13;;;21.60;49.20;;;;;;5073253;23;20228;-81
2023/05/24 07:50:35;;;;;;;7.90;3.78;;;21.60;49.40;;;;;;5019266;28;20307;-81
2023/05/24 07:53:04;;;;;;;7.35;3.50;;;21.60;49.40;;;;;;5018990;28;20212;-81
2023/05/24 07:55:30;;;;;;;7.53;3.78;;;21.60;49.40;;;;;;5019221;28;20262;-80
2023/05/24 07:57:57;;;;;;;7.05;3.50;;;21.60;49.00;;;;;;5018856;28;20192;-80
2023/05/24 08:00:25;;;;;;;6.00;3.78;;;21.60;49.10;;;;;;5018946;28;20258;-80
2023/05/24 08:02:54;;;;;;;6.97;3.10;;;21.60;49.10;;;;;;5018337;28;20307;-80
2023/05/24 08:05:21;;;;;;;7.50;3.60;;;21.60;49.20;;;;;;5035099;28;20200;-80
2023/05/24 08:07:48;;;;;;;7.13;3.53;;;21.70;49.20;;;;;;5035517;28;20200;-81
2023/05/24 08:10:15;;;;;;;6.32;3.60;;;21.70;49.10;;;;;;5034477;28;20223;-80
2023/05/24 08:12:42;;;;;;;6.50;3.20;;;21.70;49.30;;;;;;5018326;28;20270;-80
2023/05/24 08:15:10;;;;;;;6.57;3.38;;;21.70;49.10;;;;;;5034546;28;20294;-80
2023/05/24 08:17:37;;;;;;;7.22;3.72;;;21.70;50.00;;;;;;5035044;28;20679;-80
2023/05/24 08:20:08;;;;;;;7.57;3.38;;;21.70;50.40;;;;;;5018338;28;20203;-80
2023/05/24 08:22:36;;;;;;;5.25;3.05;;;21.80;50.60;;;;;;5034396;28;20571;-80
2023/05/24 08:25:03;;;;;;;5.97;3.30;;;21.70;50.50;;;;;;5018196;28;20204;-80
2023/05/24 08:27:30;;;;;;;6.72;3.40;;;21.80;50.90;;;;;;5034892;28;20284;-80
2023/05/24 08:29:58;;;;;;;7.03;3.40;;;21.70;50.50;;;;;;5035135;28;20212;-80
2023/05/24 08:32:24;;;;;;;7.28;3.63;;;21.80;50.50;;;;;;5018469;28;20216;-80
2023/05/24 08:34:52;;;;;;;6.45;3.28;;;21.80;50.60;;;;;;5018828;28;20211;-80
2023/05/24 08:37:21;;;;;;;6.55;3.10;;;21.80;50.60;;;;;;5020058;28;20655;-80
2023/05/24 08:39:48;;;;;;;5.00;3.08;;;21.80;49.80;;;;;;5035789;28;20227;-80
2023/05/24 08:42:15;;;;;;;4.57;3.25;;;21.90;49.90;;;;;;5035956;28;20258;-80
2023/05/24 08:44:47;;;;;;;7.10;3.03;;;21.90;50.00;;;;;;5019054;28;20204;-80
2023/05/24 08:47:14;;;;;;;5.32;2.88;;;21.90;49.30;;;;;;5034804;28;20226;-81
2023/05/24 08:49:42;;;;;;;6.85;2.97;;;22.00;49.30;;;;;;5021952;28;20236;-81
2023/05/24 08:52:10;;;;;;;4.03;2.63;;;21.90;49.10;;;;;;5034226;28;20223;-81
2023/05/24 08:54:38;;;;;;;5.78;3.20;;;22.00;49.30;;;;;;5034806;28;20204;-81
2023/05/24 08:57:05;;;;;;;6.03;3.38;;;22.00;49.50;;;;;;5017926;28;20196;-81
2023/05/24 08:59:33;;;;;;;5.13;2.95;;;22.00;49.10;;;;;;5034294;28;20192;-81
2023/05/24 09:01:59;;;;;;;5.30;3.00;;;22.10;49.00;;;;;;5017562;28;20230;-81
2023/05/24 09:04:27;;;;;;;5.63;3.17;;;22.00;49.10;;;;;;5018404;28;20200;-81
2023/05/24 09:06:55;;;;;;;6.05;3.15;;;22.10;49.00;;;;;;5017661;28;20192;-81
2023/05/24 09:09:22;;;;;;;6.65;3.38;;;22.10;49.10;;;;;;5033741;28;20317;-81
2023/05/24 09:11:51;;;;;;;5.53;2.90;;;22.10;49.60;;;;;;5017686;28;20702;-81
2023/05/24 09:14:19;;;;;;;5.45;3.20;;;22.10;49.10;;;;;;5034072;28;20258;-81
2023/05/24 09:16:46;;;;;;;8.27;3.40;;;22.10;48.90;;;;;;5033809;28;20709;-81
2023/05/24 09:19:13;;;;;;;7.05;3.42;;;22.10;48.70;;;;;;5017524;28;20195;-80
2023/05/24 09:21:40;;;;;;;6.57;3.25;;;22.20;48.80;;;;;;5034065;28;20212;-81
2023/05/24 09:24:08;;;;;;;5.63;3.30;;;22.10;48.40;;;;;;5018114;28;20204;-80
2023/05/24 09:26:36;;;;;;;5.70;3.17;;;22.10;48.80;;;;;;5033904;28;20200;-81
2023/05/24 09:29:06;;;;;;;6.88;3.38;;;22.20;48.70;;;;;;5016727;28;20192;-81
2023/05/24 09:31:33;;;;;;;7.00;3.30;;;22.10;48.90;;;;;;5035632;28;20228;-82
2023/05/24 09:34:00;;;;;;;5.18;2.88;;;22.10;49.00;;;;;;5035239;28;20208;-82
2023/05/24 09:36:29;;;;;;;5.93;3.03;;;22.10;48.40;;;;;;5035825;28;20211;-82
2023/05/24 09:39:06;;;;;;;6.80;3.50;;;22.10;48.70;;;;;;5057677;28;20200;-82
2023/05/24 09:41:33;;;;;;;5.68;3.20;;;22.20;48.70;;;;;;5039625;28;20258;-82
2023/05/24 09:44:00;;;;;;;4.53;3.15;;;22.10;48.50;;;;;;5033857;28;20207;-81
2023/05/24 09:46:28;;;;;;;4.20;2.85;;;22.10;48.30;;;;;;5033885;28;20204;-81
2023/05/24 09:48:57;;;;;;;6.43;3.40;;;22.10;48.60;;;;;;5034145;28;20199;-81
2023/05/24 09:51:24;;;;;;;6.28;3.40;;;22.20;48.60;;;;;;5016953;28;20633;-81
2023/05/24 09:53:53;;;;;;;7.90;3.40;;;22.20;48.20;;;;;;5035875;28;20235;-81
2023/05/24 09:56:20;;;;;;;5.22;2.85;;;22.20;48.30;;;;;;5016787;28;20258;-81
2023/05/24 09:58:46;;;;;;;4.43;3.00;;;22.20;48.40;;;;;;5000712;28;20673;-81
2023/05/24 10:01:16;;;;;;;5.80;3.22;;;22.20;48.40;;;;;;5033452;28;20216;-81
2023/05/24 10:03:53;;;;;;;5.57;2.90;;;22.20;48.40;;;;;;5032864;28;20196;-81
2023/05/24 10:06:20;;;;;;;4.70;3.17;;;22.20;48.20;;;;;;5023597;28;20187;-81
2023/05/24 10:08:48;;;;;;;5.32;3.30;;;22.20;48.40;;;;;;5032579;28;20268;-81
2023/05/24 10:11:15;;;;;;;5.13;3.17;;;22.30;48.40;;;;;;5049433;28;20247;-81
2023/05/24 10:13:42;;;;;;;4.95;2.97;;;22.20;48.40;;;;;;5045416;28;20206;-81
2023/05/24 10:16:09;;;;;;;6.40;3.10;;;22.30;48.60;;;;;;5020731;28;20204;-81
2023/05/24 10:18:36;;;;;;;5.18;3.15;;;22.30;48.30;;;;;;5039981;28;20195;-81
2023/05/24 10:21:07;;;;;;;5.00;3.05;;;22.30;48.70;;;;;;5019958;28;20196;-81
2023/05/24 10:23:34;;;;;;;4.53;2.95;;;22.20;48.30;;;;;;5018390;28;20234;-81
2023/05/24 10:26:05;;;;;;;3.92;2.90;;;22.30;48.80;;;;;;5016843;28;20568;-81
2023/05/24 10:28:32;;;;;;;6.53;3.42;;;22.30;48.40;;;;;;5032783;28;20231;-81
2023/05/24 10:31:03;;;;;;;5.22;3.30;;;22.30;48.20;;;;;;5033060;28;20244;-81
2023/05/24 10:33:31;;;;;;;4.82;3.13;;;22.30;48.10;;;;;;5032995;28;20227;-81
2023/05/24 10:35:58;;;;;;;4.38;3.00;;;22.30;48.20;;;;;;5033703;28;20200;-81
2023/05/24 10:38:26;;;;;;;5.30;2.90;;;22.30;48.20;;;;;;5018059;28;20282;-82
2023/05/24 10:40:53;;;;;;;4.75;3.10;;;22.20;47.90;;;;;;5020420;28;20200;-82
2023/05/24 10:43:21;;;;;;;6.38;3.00;;;22.30;48.20;;;;;;5020464;28;20200;-82
2023/05/24 10:48:37;;;;;;;5.38;3.25;;;22.20;48.40;;;;;;5036331;28;20215;-75
2023/05/24 10:51:37;;;;;;;6.22;3.05;;;22.20;48.30;;;;;;5018825;28;20307;-75
2023/05/24 10:54:18;;;;;;;6.07;3.22;;;22.20;48.30;;;;;;5001512;28;20204;-75
2023/05/24 10:56:47;;;;;;;5.57;2.95;;;22.20;48.00;;;;;;4985116;28;20207;-75
2023/05/24 10:59:33;;;;;;;5.70;3.05;;;22.20;48.00;;;;;;4985814;28;20201;-76
2023/05/24 11:02:01;;;;;;;5.80;3.10;;;22.20;47.80;;;;;;5001007;28;20223;-76
2023/05/24 11:04:31;;;;;;;5.65;3.15;;;22.20;48.30;;;;;;5018862;28;20557;-75
2023/05/24 11:07:02;;;;;;;6.68;3.10;;;22.20;48.20;;;;;;5000671;28;20193;-76
2023/05/24 11:09:30;;;;;;;5.68;3.17;;;22.20;48.00;;;;;;5000068;28;20267;-76
2023/05/24 11:12:06;;;;;;;4.60;2.80;;;22.10;48.30;;;;;;5000020;28;20225;-76
2023/05/24 11:14:36;;;;;;;4.43;2.70;;;22.20;48.20;;;;;;5000339;28;20704;-76
2023/05/24 11:17:04;;;;;;;5.47;3.22;;;22.10;48.20;;;;;;5016669;28;20200;-76
2023/05/24 11:19:33;;;;;;;4.32;2.83;;;22.10;48.00;;;;;;5016416;28;20254;-76
2023/05/24 11:22:01;;;;;;;5.47;3.33;;;22.10;47.80;;;;;;5017066;28;20303;-76
2023/05/24 11:24:29;;;;;;;4.78;3.20;;;22.20;48.00;;;;;;5016423;28;20235;-76
2023/05/24 11:26:57;;;;;;;5.18;2.88;;;22.20;47.60;;;;;;5016525;28;20287;-76
2023/05/24 11:29:24;;;;;;;5.35;2.72;;;22.20;47.50;;;;;;4983973;28;20292;-76
2023/05/24 11:31:51;;;;;;;5.10;3.13;;;22.20;47.50;;;;;;4999831;28;20575;-76
2023/05/24 11:34:18;;;;;;;4.28;3.17;;;22.20;47.50;;;;;;5017205;28;20193;-76
2023/05/24 11:36:46;;;;;;;3.85;2.75;;;22.20;47.60;;;;;;5016075;28;20243;-76
2023/05/24 11:39:13;;;;;;;4.53;3.17;;;22.30;47.80;;;;;;5015670;28;20193;-76
2023/05/24 11:41:42;;;;;;;3.80;2.80;;;22.30;47.40;;;;;;5000190;28;20212;-76
2023/05/24 11:44:10;;;;;;;4.63;2.78;;;22.30;47.60;;;;;;5016135;28;20671;-76
2023/05/24 11:46:38;;;;;;;3.50;2.63;;;22.30;47.10;;;;;;5015830;28;20295;-76
2023/05/24 11:49:06;;;;;;;4.38;2.75;;;22.40;47.80;;;;;;5016003;28;20231;-76
2023/05/24 11:51:34;;;;;;;3.55;2.53;;;22.40;46.70;;;;;;4998214;28;20256;-76
2023/05/24 11:54:01;;;;;;;4.88;2.60;;;22.40;46.60;;;;;;4999439;28;20201;-76
2023/05/24 11:56:29;;;;;;;5.38;2.83;;;22.40;46.50;;;;;;5015856;28;20197;-76
2023/05/24 11:59:04;;;;;;;5.68;2.78;;;22.50;46.30;;;;;;5017049;28;20192;-76
2023/05/24 12:01:32;;;;;;;6.45;2.88;;;22.50;46.20;;;;;;5015094;28;20594;-76
2023/05/24 12:03:59;;;;;;;5.57;3.08;;;22.50;46.50;;;;;;5015192;28;20197;-76
2023/05/24 12:06:38;;;;;;;3.40;2.40;;;22.60;46.40;;;;;;4998936;28;20205;-76
2023/05/24 12:09:07;;;;;;;4.57;2.80;;;22.50;46.60;;;;;;4998484;28;20251;-76
2023/05/24 12:11:36;;;;;;;5.63;2.90;;;22.60;46.80;;;;;;4998904;28;20327;-76
2023/05/24 12:14:05;;;;;;;5.32;2.80;;;22.60;46.30;;;;;;5014580;28;20207;-76
2023/05/24 12:16:32;;;;;;;4.07;2.53;;;22.60;45.80;;;;;;4998298;28;20276;-76
2023/05/24 12:19:00;;;;;;;3.90;2.50;;;22.60;45.70;;;;;;5014754;28;20196;-76
2023/05/24 12:21:31;;;;;;;4.32;2.70;;;22.70;45.70;;;;;;5014442;28;20710;-76
2023/05/24 12:24:08;;;;;;;4.47;2.42;;;22.70;45.40;;;;;;4998289;28;20262;-76
2023/05/24 12:26:37;;;;;;;6.22;2.60;;;22.70;45.70;;;;;;5015300;28;20207;-76
2023/05/24 12:29:05;;;;;;;3.47;2.65;;;22.70;45.80;;;;;;5014760;28;20232;-76
2023/05/24 12:31:32;;;;;;;3.83;2.40;;;22.70;45.90;;;;;;4998164;28;20271;-76
2023/05/24 12:33:59;;;;;;;5.40;2.75;;;22.80;45.50;;;;;;5014572;28;20564;-77
2023/05/24 12:36:28;;;;;;;3.97;2.45;;;22.80;45.50;;;;;;4998071;28;20212;-76
2023/05/24 12:38:57;;;;;;;3.35;2.42;;;22.80;45.40;;;;;;4998056;28;20207;-76
2023/05/24 12:41:24;;;;;;;5.05;3.03;;;22.80;45.20;;;;;;5014226;28;20275;-76
2023/05/24 12:43:52;;;;;;;5.43;2.42;;;22.80;45.00;;;;;;4997962;28;20204;-76
2023/05/24 12:46:21;;;;;;;4.28;2.33;;;22.80;46.20;;;;;;5013862;28;20228;-76
2023/05/24 12:48:48;;;;;;;3.92;2.80;;;22.80;45.70;;;;;;4998083;28;20205;-76
2023/05/24 12:51:16;;;;;;;3.03;2.35;;;22.80;45.70;;;;;;4998471;28;20220;-77
2023/05/24 12:53:43;;;;;;;3.38;2.40;;;22.80;45.70;;;;;;4998365;28;20205;-76
2023/05/24 12:56:10;;;;;;;4.78;2.50;;;22.80;45.50;;;;;;5016137;28;20710;-76